Destinations Ibn Batouta Airport

Ibn Batouta Airport (GMTT / TNG)

Flights to Ibn Batouta Airport

Flight number From ETE Dispatch
SPY-2268 EGFF Cardiff International Airport 02:55
SPY-614 EHGG Groningen Airport Eelde 04:00

Flights from Ibn Batouta Airport

Flight number To ETE Dispatch
SPY-2269 EGFF Cardiff International Airport 02:55
SPY-615 EHGG Groningen Airport Eelde
About

Ibn Batouta Airport facts

Ibn Batouta Airport is located in Tanger at an elevation of 18.9 meters or 62 feet.

Currently, Speedy Airlines serves 4 flights to and from Ibn Batouta Airport.

Detailed airport info

Route map

Weather

Current weather

METAR

METAR

Metar data retrieved Sunday, 21 July 2024 at 19:25 UTC

GMTT 211900Z 28005KT CAVOK 23/22 Q1013 NOSIG
Wind Temperature
5 kt 23c